Tiempo atmosférico en la estación meteorológica de Alcañices, Zamora (840 m.)

Fecha
DESCASC
Temp. máxima en grados centígrados (hora)
DESCASC
Temp. mínima en grados centígrados (hora)
DESCASC
Temp. media en grados centígrados
DESCASC
Racha de viento máxima en m/sg (hora)
DESCASC
Velocidad máxima media en intervalos de 10 minutos(hora)
DESCASC
Precipitaciones diarias en mm
DESCASC
Precipitaciones de 00:00 a 06:00 en mm
DESCASC
Precipitaciones de 06:00 a 12:00 en mm
DESCASC
Precipitaciones de 12:00 a 18:00 en mm
DESCASC
Precipitaciones de 18:00 a 24:00 en mm
DESCASC
21-08-2017 36.4 (16:50) 16.5 (07:40) 26.5 9.72 (17:00) 6.67 (06:30) 0 0 0 0 0
20-08-2017 32 (17:40) 12.5 (07:30) 22.3 11.39 (13:50) 7.5 (12:20) 0 0 0 0 0
19-08-2017 33.2 (18:20) 13.7 (07:30) 23.5 10.56 (09:50) 8.06 (09:50) 0 0 0 0 0
18-08-2017 32.6 (17:50) 14.2 (07:50) 23.4 8.61 (20:20) 5.28 (20:40) 0 0 0 0 0
17-08-2017 33.7 (18:20) 14.3 (00:00) 24 9.17 (17:50) 5 (17:40) 0 0 0 0 0
16-08-2017 32.2 (18:00) 11.4 (00:00) 21.8 7.22 (19:20) 4.72 (18:50) 0 0 0 0 0
15-08-2017 29.9 (16:50) 15.5 (00:00) 22.7 11.67 (16:20) 7.22 (15:00) 0 0 0 0 0
14-08-2017 32.7 (18:00) 15.5 (07:00) 24.1 13.33 (18:00) 7.5 (17:00) 0 0 0 0 0
13-08-2017 33.4 (19:00) 13.6 (00:00) 23.5 8.61 (09:30) 6.11 (06:00) 0 0 0 0 0
12-08-2017 32.4 (18:10) 10.8 (00:00) 21.6 8.06 (10:10) 6.11 (10:20) 0 0 0 0 0
11-08-2017 28 (17:30) 8 (00:00) 18 8.33 (00:20) 6.11 (09:50) 0 0 0 0 0
10-08-2017 26 (17:40) 4.6 (00:00) 15.3 10.56 (00:10) 6.67 (00:10) 0 0 0 0 0
09-08-2017 23.6 (17:00) 7.5 (00:00) 15.6 11.67 (21:20) 8.61 (20:40) 0 0 0 0 0
08-08-2017 25.9 (17:40) 8 (00:00) 16.9 8.61 (17:00) 5.28 (20:20) 0 0 0 0 0
07-08-2017 28.9 (16:20) 11.1 (00:00) 20 13.33 (16:40) 7.78 (16:40) 0 0 0 0 0
06-08-2017 29.2 (18:30) 13.5 (00:00) 21.4 15 (10:30) 10.56 (10:30) 0 0 0 0 0
05-08-2017 32.4 (16:50) 14.4 (00:00) 23.4 11.67 (23:59) 8.33 (23:30) 0 0 0 0 0
04-08-2017 33.2 (17:40) 16 (00:00) 24.6 11.11 (19:30) 6.67 (15:10) 0 0 0 0 0
03-08-2017 30.5 (18:20) 13.9 (00:00) 22.2 11.94 (18:10) 7.5 (18:10) 0 0 0 0 0
02-08-2017 30.6 (18:20) 10 (00:00) 20.3 9.17 (16:20) 5.56 (17:30) 0 0 0 0 0
01-08-2017 27.1 (17:10) 9.8 (00:00) 18.5 10.28 (17:40) 5.83 (18:40) 0 0 0 0 0
31-07-2017 22 (16:40) 9.3 (00:00) 15.7 7.78 (17:40) 5 (17:50) 0 0 0 0 0
30-07-2017 28.4 (17:40) 12.2 (00:00) 20.3 12.22 (14:50) 6.67 (18:20) 0 0 0 0 0
29-07-2017 30.9 (18:50) 14 (00:00) 22.4 12.22 (17:10) 8.61 (16:50) 0 0 0 0 0
28-07-2017 32.2 (18:00) 13.3 (00:00) 22.8 12.22 (15:20) 6.11 (17:30) 0 0 0 0 0
27-07-2017 32.7 (18:00) 13 (00:00) 22.9 11.11 (16:30) 6.94 (16:20) 0 0 0 0 0
26-07-2017 32.3 (18:30) 11.3 (00:00) 21.8 8.33 (17:50) 5.83 (03:00) 0 0 0 0 0
25-07-2017 29.5 (17:50) 10.3 (00:00) 19.9 10.56 (02:50) 7.5 (02:50) 0 0 0 0 0
24-07-2017 30.9 (16:50) 10.7 (00:00) 20.8 15 (21:00) 6.94 (23:59) 0 0 0 0 0
23-07-2017 29.7 (17:10) 9.1 (00:00) 19.4 11.39 (19:30) 7.22 (19:00) 0 0 0 0 0

Gráficas

Temp. máximas Temp. mínimas Temp. medias Precipitaciones Rachas de viento máximas Velocidades máximas media en intervalos de 10 minutos

Datos horarios

Fecha y hora oficial Temperatura (ºC) Velocidad del viento (km/h) Dirección del viento Racha (km/h) Dirección de racha Precipitación (mm) Presión (hPa) Tendencia (hPa) Humedad (%)
2017-08-21 23:00:00 26.3 14 Sudoeste 24 Oeste 0 -- -- 37
2017-08-21 22:00:00 29.8 16 Sudoeste 26 Sudoeste 0 -- -- 28
2017-08-21 21:00:00 31.3 13 Sudoeste 30 Oeste 0 -- -- 28
2017-08-21 20:00:00 34.2 17 Sudoeste 28 Sudoeste 0 -- -- 25
2017-08-21 19:00:00 34.3 6 Sudoeste 29 Sudoeste 0 -- -- 21
2017-08-21 18:00:00 35.9 13 Sur 34 Sudoeste 0 -- -- 20
2017-08-21 17:00:00 36.4 12 Sur 35 Sudoeste 0 -- -- 20
2017-08-21 16:00:00 35.2 10 Sudoeste 25 Sur 0 -- -- 22
2017-08-21 15:00:00 35.3 9 Sudoeste 21 Sudoeste 0 -- -- 19
2017-08-21 14:00:00 35.4 6 Norte 17 Sudeste 0 -- -- 18
2017-08-21 13:00:00 32.6 8 Este 18 Este 0 -- -- 19
2017-08-21 12:00:00 30.4 12 Nordeste 24 Nordeste 0 -- -- 22
2017-08-21 11:00:00 26.9 17 Nordeste 28 Nordeste 0 -- -- 27
2017-08-21 10:00:00 23.3 20 Nordeste 27 Nordeste 0 -- -- 33
2017-08-21 09:00:00 20 20 Nordeste 29 Nordeste 0 -- -- 41
2017-08-21 08:00:00 17.4 21 Nordeste 27 Nordeste 0 -- -- 48
2017-08-21 07:00:00 17.3 21 Nordeste 30 Nordeste 0 -- -- 50
2017-08-21 06:00:00 17.5 22 Nordeste 30 Nordeste 0 -- -- 48
2017-08-21 05:00:00 17.7 18 Nordeste 23 Nordeste 0 -- -- 47
2017-08-21 04:00:00 18 17 Nordeste 23 Nordeste 0 -- -- 44
2017-08-21 03:00:00 19.9 21 Nordeste 29 Nordeste 0 -- -- 39
2017-08-21 02:00:00 20.6 17 Nordeste 30 Nordeste 0 -- -- 36
2017-08-21 01:00:00 21.8 20 Nordeste 30 Nordeste 0 -- -- 33
2017-08-21 00:00:00 23.1 21 Nordeste 29 Nordeste 0 -- -- 32
2017-08-20 23:00:00 22 15 Este 17 Este 0 -- -- 30
2017-08-20 22:00:00 24.1 15 Nordeste 26 Nordeste 0 -- -- 27
2017-08-20 21:00:00 27.9 19 Nordeste 32 Este 0 -- -- 22
2017-08-20 20:00:00 30.6 21 Nordeste 33 Este 0 -- -- 20
2017-08-20 19:00:00 31.6 21 Este 34 Nordeste 0 -- -- 20
2017-08-20 18:00:00 31.8 22 Nordeste 35 Este 0 -- -- 19
2017-08-20 17:00:00 31.5 22 Este 40 Este 0 -- -- 17
2017-08-20 16:00:00 30.8 21 Este 37 Este 0 -- -- 17
2017-08-20 15:00:00 29.4 22 Este 38 Este 0 -- -- 20
2017-08-20 14:00:00 27.4 24 Este 41 Este 0 -- -- 19
2017-08-20 13:00:00 25.3 24 Este 36 Este 0 -- -- 23
2017-08-20 12:00:00 23.9 24 Nordeste 36 Nordeste 0 -- -- 25
2017-08-20 11:00:00 21.1 20 Este 36 Este 0 -- -- 39
2017-08-20 10:00:00 17.8 26 Este 38 Nordeste 0 -- -- 50
2017-08-20 09:00:00 15.4 22 Nordeste 33 Nordeste 0 -- -- 63
2017-08-20 08:00:00 13 23 Nordeste 31 Nordeste 0 -- -- 73
2017-08-20 07:00:00 12.8 23 Nordeste 35 Nordeste 0 -- -- 75
2017-08-20 06:00:00 13.2 24 Nordeste 30 Nordeste 0 -- -- 75
2017-08-20 05:00:00 14 23 Nordeste 34 Nordeste 0 -- -- 75
2017-08-20 04:00:00 15 26 Nordeste 33 Nordeste 0 -- -- 74
2017-08-20 03:00:00 15.9 24 Nordeste 36 Nordeste 0 -- -- 71
2017-08-20 02:00:00 17.7 24 Nordeste 38 Nordeste 0 -- -- 65
2017-08-20 01:00:00 19.6 23 Nordeste 31 Nordeste 0 -- -- 54
2017-08-20 00:00:00 20.8 17 Nordeste 22 Nordeste 0 -- -- 36
2017-08-19 23:00:00 22 14 Este 17 Este 0 -- -- 35
2017-08-19 22:00:00 23 9 Este 14 Este 0 -- -- 36
2017-08-19 21:00:00 27 10 Este 18 Este 0 -- -- 30
2017-08-19 20:00:00 30.6 8 Este 19 Este 0 -- -- 26
2017-08-19 19:00:00 31.1 10 Este 21 Este 0 -- -- 26
2017-08-19 18:00:00 32.6 10 Noroeste 19 Norte 0 -- -- 21
2017-08-19 17:00:00 30.4 8 Sudeste 21 Este 0 -- -- 28
2017-08-19 16:00:00 31 8 Noroeste 22 Noroeste 0 -- -- 28
2017-08-19 15:00:00 29.2 10 Nordeste 26 Norte 0 -- -- 36
2017-08-19 14:00:00 26.8 12 Nordeste 24 Este 0 -- -- 42
2017-08-19 13:00:00 25.4 13 Nordeste 27 Nordeste 0 -- -- 47
2017-08-19 12:00:00 22.6 20 Nordeste 33 Nordeste 0 -- -- 55
2017-08-19 11:00:00 20.4 28 Nordeste 36 Nordeste 0 -- -- 63
2017-08-19 10:00:00 18.3 26 Nordeste 38 Nordeste 0 -- -- 71
2017-08-19 09:00:00 16.5 22 Nordeste 36 Nordeste 0 -- -- 79
2017-08-19 08:00:00 14.4 19 Nordeste 27 Nordeste 0 -- -- 89
2017-08-19 07:00:00 14.2 19 Nordeste 28 Nordeste 0 -- -- 89
2017-08-19 06:00:00 14.7 21 Nordeste 30 Este 0 -- -- 87
2017-08-19 05:00:00 15.4 21 Nordeste 31 Este 0 -- -- 84
2017-08-19 04:00:00 15.9 19 Nordeste 29 Nordeste 0 -- -- 80
2017-08-19 03:00:00 17.3 22 Nordeste 37 Nordeste 0 -- -- 74
2017-08-19 02:00:00 18.4 21 Nordeste 32 Nordeste 0 -- -- 69
2017-08-19 01:00:00 20 23 Nordeste 32 Nordeste 0 -- -- 61
2017-08-19 00:00:00 20.8 14 Nordeste 24 Nordeste 0 -- -- 50
2017-08-18 23:00:00 22.3 13 Norte 25 Norte 0 -- -- 42
2017-08-18 22:00:00 23.2 8 Noroeste 27 Oeste 0 -- -- 41
2017-08-18 21:00:00 26 17 Oeste 31 Noroeste 0 -- -- 35
2017-08-18 20:00:00 29.2 15 Oeste 24 Oeste 0 -- -- 28
2017-08-18 19:00:00 31.6 12 Oeste 28 Oeste 0 -- -- 23
2017-08-18 18:00:00 32.1 14 Oeste 30 Noroeste 0 -- -- 24
2017-08-18 17:00:00 31.7 14 Noroeste 29 Oeste 0 -- -- 25
2017-08-18 16:00:00 31.8 8 Sudoeste 24 Noroeste 0 -- -- 24
2017-08-18 15:00:00 30.9 10 Noroeste 20 Norte 0 -- -- 27
2017-08-18 14:00:00 30.4 5 Noroeste 15 Nordeste 0 -- -- 29
2017-08-18 13:00:00 28.9 7 Nordeste 18 Noroeste 0 -- -- 34
2017-08-18 12:00:00 26.6 6 Oeste 17 Sudoeste 0 -- -- 39
2017-08-18 11:00:00 23.6 6 Sudoeste 13 Oeste 0 -- -- 48
2017-08-18 10:00:00 19.9 10 Sudoeste 17 Oeste 0 -- -- 64
2017-08-18 09:00:00 17.5 12 Sudoeste 18 Oeste 0 -- -- 73
2017-08-18 08:00:00 14.6 4 Sudoeste 17 Sudoeste 0 -- -- 81
2017-08-18 07:00:00 15.6 10 Sur 15 Sur 0 -- -- 77
2017-08-18 06:00:00 15.4 10 Sur 14 Sudeste 0 -- -- 71
2017-08-18 05:00:00 15.3 8 Este 13 Este 0 -- -- 62
2017-08-18 04:00:00 19 9 Oeste 15 Oeste 0 -- -- 48
2017-08-18 03:00:00 19.1 9 Oeste 17 Oeste 0 -- -- 44
2017-08-18 02:00:00 20.7 13 Oeste 18 Sudoeste 0 -- -- 41
2017-08-18 01:00:00 20.3 5 Sur 10 Oeste 0 -- -- 45
2017-08-18 00:00:00 21.4 7 Noroeste 13 Noroeste 0 -- -- 45
2017-08-17 23:00:00 23.1 9 Noroeste 21 Noroeste 0 -- -- 41
2017-08-17 22:00:00 26.2 13 Oeste 21 Noroeste 0 -- -- 34
2017-08-17 21:00:00 29.1 14 Oeste 27 Oeste 0 -- -- 23
2017-08-17 20:00:00 31.7 14 Oeste 26 Oeste 0 -- -- 19
2017-08-17 19:00:00 33.1 16 Oeste 33 Oeste 0 -- -- 19
2017-08-17 18:00:00 33.3 13 Sudoeste 33 Oeste 0 -- -- 25
2017-08-17 17:00:00 32.7 14 Sudoeste 30 Sudoeste 0 -- -- 26
2017-08-17 16:00:00 32.9 11 Oeste 26 Oeste 0 -- -- 26
2017-08-17 15:00:00 30.4 14 Oeste 28 Oeste 0 -- -- 30
2017-08-17 14:00:00 29.9 8 Sudoeste 23 Noroeste 0 -- -- 31
2017-08-17 13:00:00 28.8 8 Sur 17 Sur 0 -- -- 34
2017-08-17 12:00:00 27.9 4 Sur 12 Sur 0 -- -- 37
2017-08-17 11:00:00 25.6 5 Nordeste 16 Nordeste 0 -- -- 41
2017-08-17 10:00:00 21.8 10 Nordeste 13 Nordeste 0 -- -- 52
2017-08-17 09:00:00 19.6 7 Nordeste 10 Nordeste 0 -- -- 60
2017-08-17 08:00:00 15.1 12 Nordeste 15 Nordeste 0 -- -- 76
2017-08-17 07:00:00 14.7 11 Nordeste 16 Nordeste 0 -- -- 76
2017-08-17 06:00:00 15.1 11 Nordeste 17 Nordeste 0 -- -- 76
2017-08-17 05:00:00 15.3 10 Nordeste 13 Norte 0 -- -- 77
2017-08-17 04:00:00 17.3 11 Nordeste 16 Nordeste 0 -- -- 70
2017-08-17 03:00:00 19.1 14 Nordeste 18 Nordeste 0 -- -- 62
2017-08-17 02:00:00 19.6 4 Norte 8 Noroeste 0 -- -- 58
2017-08-17 01:00:00 19.7 6 Noroeste 9 Noroeste 0 -- -- 57
2017-08-17 00:00:00 21.3 5 Noroeste 11 Oeste 0 -- -- 52
2017-08-16 23:00:00 23.2 8 Oeste 18 Oeste 0 -- -- 46
2017-08-16 22:00:00 24.6 10 Oeste 18 Oeste 0 -- -- 42
2017-08-16 21:00:00 28.2 8 Oeste 17 Sudoeste 0 -- -- 32
2017-08-16 20:00:00 30.3 10 Oeste 26 Oeste 0 -- -- 24
2017-08-16 19:00:00 30.8 12 Oeste 25 Oeste 0 -- -- 27
2017-08-16 18:00:00 32.2 9 Noroeste 25 Oeste 0 -- -- 25
2017-08-16 17:00:00 30.6 7 Oeste 24 Oeste 0 -- -- 28
2017-08-16 16:00:00 31 5 Nordeste 22 Oeste 0 -- -- 28
2017-08-16 15:00:00 29.1 5 Nordeste 14 Oeste 0 -- -- 29
2017-08-16 14:00:00 27.5 7 Norte 19 Este 0 -- -- 31
2017-08-16 13:00:00 26.8 6 Nordeste 17 Este 0 -- -- 35
2017-08-16 12:00:00 24.1 6 Sur 19 Este 0 -- -- 45
2017-08-16 11:00:00 21.4 11 Nordeste 22 Nordeste 0 -- -- 60
2017-08-16 10:00:00 19.5 8 Este 13 Sudeste 0 -- -- 68
2017-08-16 09:00:00 16.7 6 Nordeste 10 Nordeste 0 -- -- 74
2017-08-16 08:00:00 11.9 11 Este 13 Este 0 -- -- 92
2017-08-16 07:00:00 12.9 4 Este 9 Sudeste 0 -- -- 89
2017-08-16 06:00:00 14.2 7 Sudeste 8 Sudeste 0 -- -- 75
2017-08-16 05:00:00 13.2 6 Este 15 Nordeste 0 -- -- 75
2017-08-16 04:00:00 14.3 4 Oeste 6 Sudoeste 0 -- -- 72
2017-08-16 03:00:00 15.7 4 Sudeste 16 Este 0 -- -- 68
2017-08-16 02:00:00 17.6 5 Sudoeste 18 Oeste 0 -- -- 61
2017-08-16 01:00:00 18.8 11 Oeste 19 Oeste 0 -- -- 56
2017-08-16 00:00:00 18.3 7 Sur 20 Oeste 0 -- -- 52
2017-08-15 23:00:00 21.3 12 Oeste 26 Oeste 0 -- -- 41
2017-08-15 22:00:00 22.7 15 Oeste 27 Oeste 0 -- -- 40
2017-08-15 21:00:00 24.6 18 Oeste 35 Oeste 0 -- -- 35
2017-08-15 20:00:00 26.9 21 Oeste 37 Oeste 0 -- -- 31
2017-08-15 19:00:00 28.3 24 Oeste 40 Oeste 0 -- -- 27
2017-08-15 18:00:00 29.5 20 Oeste 42 Noroeste 0 -- -- 26
2017-08-15 17:00:00 29.8 19 Oeste 42 Sudoeste 0 -- -- 19
2017-08-15 16:00:00 27.4 22 Oeste 38 Sudoeste 0 -- -- 21
2017-08-15 15:00:00 27 26 Oeste 40 Oeste 0 -- -- 25
2017-08-15 14:00:00 26.2 18 Sudoeste 30 Sudoeste 0 -- -- 25
2017-08-15 13:00:00 23.9 19 Sudoeste 28 Oeste 0 -- -- 38
2017-08-15 12:00:00 23.2 15 Oeste 23 Sudoeste 0 -- -- 41
2017-08-15 11:00:00 20.4 12 Sudoeste 18 Oeste 0 -- -- 55
2017-08-15 10:00:00 18.3 9 Sudoeste 16 Sudoeste 0 -- -- 71
2017-08-15 09:00:00 16.7 10 Sudoeste 14 Sudoeste 0 -- -- 77
2017-08-15 08:00:00 15.5 9 Sudoeste 16 Sudoeste 0 -- -- 77
2017-08-15 07:00:00 16.1 13 Sudoeste 18 Sudoeste 0 -- -- 74
2017-08-15 06:00:00 16.3 8 Sudoeste 11 Sudoeste 0 -- -- 69
2017-08-15 05:00:00 17 5 Sudoeste 10 Sudoeste 0 -- -- 66
2017-08-15 04:00:00 17.2 5 Sudoeste 14 Sudoeste 0 -- -- 63
2017-08-15 03:00:00 17.9 12 Sudoeste 16 Sudoeste 0 -- -- 58
2017-08-15 02:00:00 19.7 15 Sudoeste 17 Sudoeste 0 -- -- 50
2017-08-15 01:00:00 20.7 12 Sudoeste 17 Oeste 0 -- -- 47
2017-08-15 00:00:00 21.4 9 Oeste 22 Oeste 0 -- -- 44
2017-08-14 23:00:00 24 14 Oeste 20 Oeste 0 -- -- 37
2017-08-14 22:00:00 24.9 9 Oeste 27 Oeste 0 -- -- 28
2017-08-14 21:00:00 28 15 Oeste 33 Oeste 0 -- -- 23
2017-08-14 20:00:00 30.3 21 Oeste 32 Oeste 0 -- -- 23
2017-08-14 19:00:00 31.7 18 Oeste 39 Oeste 0 -- -- 20
2017-08-14 18:00:00 32.7 23 Sudoeste 48 Sudoeste 0 -- -- 20
2017-08-14 17:00:00 32.1 27 Sudoeste 46 Sudoeste 0 -- -- 21
2017-08-14 16:00:00 31.8 27 Sudoeste 44 Sudoeste 0 -- -- 22
2017-08-14 15:00:00 31.3 19 Sudoeste 33 Sudoeste 0 -- -- 24
2017-08-14 14:00:00 30.6 16 Sudoeste 25 Sudoeste 0 -- -- 25
2017-08-14 13:00:00 29 10 Sudoeste 18 Oeste 0 -- -- 31
2017-08-14 12:00:00 28.7 4 Sur 16 Este 0 -- -- 32
2017-08-14 11:00:00 24.8 7 Este 12 Este 0 -- -- 40
2017-08-14 10:00:00 21.5 6 Este 8 Este 0 -- -- 46
2017-08-14 09:00:00 17.8 5 Este 10 Este 0 -- -- 48
2017-08-14 08:00:00 16 6 Sudeste 9 Sudeste 0 -- -- 50
2017-08-14 07:00:00 15.5 8 Sudeste 18 Nordeste 0 -- -- 51
2017-08-14 06:00:00 16.1 9 Nordeste 10 Nordeste 0 -- -- 48
2017-08-14 05:00:00 16.8 10 Nordeste 15 Nordeste 0 -- -- 45
2017-08-14 04:00:00 17.4 12 Nordeste 19 Nordeste 0 -- -- 40
2017-08-14 03:00:00 17.4 0 Calma 12 Sudoeste 0 -- -- 39
2017-08-14 02:00:00 22.9 4 Sudeste 10 Norte 0 -- -- 26
2017-08-14 01:00:00 22.3 0 Calma 11 Nordeste 0 -- -- 27
2017-08-14 00:00:00 23.4 2 Oeste 5 Noroeste 0 -- -- 27
2017-08-13 23:00:00 24 3 Oeste 8 Oeste 0 -- -- 25
2017-08-13 22:00:00 25.4 4 Noroeste 9 Oeste 0 -- -- 23
2017-08-13 21:00:00 29.5 6 Oeste 17 Sudoeste 0 -- -- 19
2017-08-13 20:00:00 32.2 8 Oeste 21 Oeste 0 -- -- 16
2017-08-13 19:00:00 33.4 5 Noroeste 20 Oeste 0 -- -- 15
2017-08-13 18:00:00 32.6 11 Sur 27 Sudoeste 0 -- -- 16
2017-08-13 17:00:00 32.6 6 Sur 22 Oeste 0 -- -- 17
2017-08-13 16:00:00 32.7 7 Sur 24 Nordeste 0 -- -- 18
2017-08-13 15:00:00 30.6 9 Sur 22 Sudeste 0 -- -- 19
2017-08-13 14:00:00 29.7 8 Este 21 Nordeste 0 -- -- 20
2017-08-13 13:00:00 28.3 9 Este 21 Este 0 -- -- 24
2017-08-13 12:00:00 25.6 11 Nordeste 24 Este 0 -- -- 29
2017-08-13 11:00:00 23 16 Nordeste 28 Nordeste 0 -- -- 32
2017-08-13 10:00:00 20.2 21 Nordeste 31 Nordeste 0 -- -- 36
2017-08-13 09:00:00 17.1 20 Nordeste 28 Nordeste 0 -- -- 45
2017-08-13 08:00:00 14.7 17 Nordeste 27 Nordeste 0 -- -- 51
2017-08-13 07:00:00 13.6 18 Nordeste 26 Nordeste 0 -- -- 60
2017-08-13 06:00:00 15.7 22 Nordeste 29 Nordeste 0 -- -- 55
2017-08-13 05:00:00 15.6 19 Nordeste 26 Nordeste 0 -- -- 59
2017-08-13 04:00:00 16.4 17 Nordeste 22 Nordeste 0 -- -- 55
2017-08-13 03:00:00 17 17 Nordeste 21 Nordeste 0 -- -- 51
2017-08-13 02:00:00 17.1 17 Nordeste 30 Nordeste 0 -- -- 41
2017-08-13 01:00:00 18.9 10 Nordeste 11 Nordeste 0 -- -- 35
2017-08-13 00:00:00 19.8 4 Norte 13 Sudeste 0 -- -- 32
2017-08-12 23:00:00 22.1 9 Sudeste 22 Sudeste 0 -- -- 29
2017-08-12 22:00:00 23.4 12 Sudeste 15 Sudeste 0 -- -- 27
2017-08-12 21:00:00 27 6 Sudoeste 10 Sur 0 -- -- 23
2017-08-12 20:00:00 30.3 7 Sudoeste 18 Sur 0 -- -- 19
2017-08-12 19:00:00 31.9 8 Noroeste 15 Noroeste 0 -- -- 17
2017-08-12 18:00:00 30.7 6 Sudeste 18 Sur 0 -- -- 18
2017-08-12 17:00:00 31.9 4 Oeste 24 Sudeste 0 -- -- 17
2017-08-12 16:00:00 29.9 7 Sudoeste 19 Sur 0 -- -- 18
2017-08-12 15:00:00 28.8 7 Nordeste 18 Este 0 -- -- 19
2017-08-12 14:00:00 26.6 10 Sudeste 24 Este 0 -- -- 21
2017-08-12 13:00:00 25.1 13 Este 23 Este 0 -- -- 22
2017-08-12 12:00:00 23.6 18 Este 26 Este 0 -- -- 21
2017-08-12 11:00:00 21.8 19 Nordeste 29 Este 0 -- -- 24
2017-08-12 10:00:00 19.7 19 Este 27 Nordeste 0 -- -- 28
2017-08-12 09:00:00 16 14 Nordeste 19 Nordeste 0 -- -- 48
2017-08-12 08:00:00 12.3 17 Nordeste 20 Nordeste 0 -- -- 62
2017-08-12 07:00:00 10.9 15 Nordeste 18 Nordeste 0 -- -- 68
2017-08-12 06:00:00 11.5 15 Nordeste 20 Nordeste 0 -- -- 67
2017-08-12 05:00:00 12.1 17 Nordeste 21 Nordeste 0 -- -- 63
2017-08-12 04:00:00 13.2 16 Nordeste 21 Nordeste 0 -- -- 53
2017-08-12 03:00:00 14.3 18 Nordeste 21 Nordeste 0 -- -- 50
2017-08-12 02:00:00 14.4 12 Nordeste 19 Nordeste 0 -- -- 41
2017-08-12 01:00:00 16.1 11 Nordeste 15 Nordeste 0 -- -- 35
2017-08-12 00:00:00 18.9 8 Nordeste 15 Este 0 -- -- 29
2017-08-11 23:00:00 18.6 13 Este 17 Este 0 -- -- 30
2017-08-11 22:00:00 20 12 Este 17 Este 0 -- -- 28
2017-08-11 21:00:00 23.4 12 Sudeste 17 Este 0 -- -- 24
2017-08-11 20:00:00 26.8 10 Este 18 Sudeste 0 -- -- 21
2017-08-11 19:00:00 27.6 6 Sur 19 Este 0 -- -- 21
2017-08-11 18:00:00 27.6 7 Sur 19 Nordeste 0 -- -- 23
2017-08-11 17:00:00 26.7 8 Sudeste 20 Nordeste 0 -- -- 24
2017-08-11 16:00:00 26.3 7 Noroeste 24 Este 0 -- -- 25
2017-08-11 15:00:00 23.4 12 Este 21 Nordeste 0 -- -- 31
2017-08-11 14:00:00 22.6 8 Este 21 Este 0 -- -- 36
2017-08-11 13:00:00 21.3 6 Sudeste 22 Sudeste 0 -- -- 38
2017-08-11 12:00:00 19.1 14 Este 27 Este 0 -- -- 43
2017-08-11 11:00:00 16.8 19 Nordeste 29 Nordeste 0 -- -- 47
2017-08-11 10:00:00 14.4 19 Nordeste 29 Este 0 -- -- 57
2017-08-11 09:00:00 11.9 15 Nordeste 21 Nordeste 0 -- -- 67
2017-08-11 08:00:00 8.8 13 Nordeste 17 Nordeste 0 -- -- 78
2017-08-11 07:00:00 8.9 13 Nordeste 18 Nordeste 0 -- -- 77
2017-08-11 06:00:00 9.6 14 Nordeste 25 Nordeste 0 -- -- 76
2017-08-11 05:00:00 10.2 18 Nordeste 25 Nordeste 0 -- -- 72
2017-08-11 04:00:00 10.7 18 Nordeste 23 Nordeste 0 -- -- 70
2017-08-11 03:00:00 11.6 17 Nordeste 30 Este 0 -- -- 66
2017-08-11 02:00:00 12.6 18 Nordeste 27 Nordeste 0 -- -- 63
2017-08-11 01:00:00 14.1 17 Nordeste 30 Nordeste 0 -- -- 57
2017-08-11 00:00:00 14.7 15 Nordeste 22 Nordeste 0 -- -- 49
2017-08-10 23:00:00 16.5 9 Este 14 Nordeste 0 -- -- 40
2017-08-10 22:00:00 17.9 10 Este 14 Sudeste 0 -- -- 37
2017-08-10 21:00:00 21.5 11 Sudeste 20 Este 0 -- -- 30
2017-08-10 20:00:00 23.7 12 Sudeste 22 Este 0 -- -- 26
2017-08-10 19:00:00 24.3 14 Este 25 Este 0 -- -- 26
2017-08-10 18:00:00 24.7 7 Nordeste 26 Nordeste 0 -- -- 25
2017-08-10 17:00:00 23.6 15 Este 32 Nordeste 0 -- -- 26
2017-08-10 16:00:00 23.1 13 Este 31 Nordeste 0 -- -- 29
2017-08-10 15:00:00 21.5 12 Este 31 Nordeste 0 -- -- 31
2017-08-10 14:00:00 20.4 14 Este 30 Este 0 -- -- 33
2017-08-10 13:00:00 19 19 Este 33 Nordeste 0 -- -- 37
2017-08-10 12:00:00 17.8 21 Nordeste 33 Nordeste 0 -- -- 40
2017-08-10 11:00:00 16.5 17 Nordeste 28 Este 0 -- -- 44
2017-08-10 10:00:00 13.4 15 Nordeste 22 Nordeste 0 -- -- 56
2017-08-10 09:00:00 9.8 12 Nordeste 18 Este 0 -- -- 74
2017-08-10 08:00:00 6.1 8 Nordeste 12 Este 0 -- -- 87
2017-08-10 07:00:00 4.6 10 Este 11 Nordeste 0 -- -- 88
2017-08-10 06:00:00 6.4 8 Nordeste 11 Nordeste 0 -- -- 83
2017-08-10 05:00:00 6.4 11 Nordeste 18 Nordeste 0 -- -- 79
2017-08-10 04:00:00 8.1 15 Este 25 Nordeste 0 -- -- 72
2017-08-10 03:00:00 8.7 15 Nordeste 27 Nordeste 0 -- -- 70
2017-08-10 02:00:00 9.6 18 Nordeste 26 Nordeste 0 -- -- 65
2017-08-10 01:00:00 10.5 16 Nordeste 38 Nordeste 0 -- -- 60
2017-08-10 00:00:00 11.9 24 Nordeste 36 Nordeste 0 -- -- 54
2017-08-09 23:00:00 12.8 18 Nordeste 32 Nordeste 0 -- -- 51
2017-08-09 22:00:00 14.2 22 Nordeste 42 Nordeste 0 -- -- 46
2017-08-09 21:00:00 16.9 28 Nordeste 41 Nordeste 0 -- -- 41
2017-08-09 20:00:00 19.7 29 Nordeste 41 Nordeste 0 -- -- 34
2017-08-09 19:00:00 21.8 22 Nordeste 41 Nordeste 0 -- -- 27
2017-08-09 18:00:00 22.9 23 Nordeste 37 Nordeste 0 -- -- 24
2017-08-09 17:00:00 23.6 16 Norte 36 Norte 0 -- -- 23
2017-08-09 16:00:00 22.6 22 Nordeste 37 Nordeste 0 -- -- 24
2017-08-09 15:00:00 21.9 21 Nordeste 41 Este 0 -- -- 27
2017-08-09 14:00:00 20 20 Norte 33 Norte 0 -- -- 34
2017-08-09 13:00:00 19.7 18 Norte 32 Nordeste 0 -- -- 37
2017-08-09 12:00:00 19.2 17 Nordeste 31 Nordeste 0 -- -- 38
2017-08-09 11:00:00 16.5 21 Nordeste 34 Norte 0 -- -- 45
2017-08-09 10:00:00 15.4 11 Nordeste 18 Nordeste 0 -- -- 56
2017-08-09 09:00:00 12.1 10 Nordeste 16 Nordeste 0 -- -- 68
2017-08-09 08:00:00 9.2 13 Nordeste 19 Nordeste 0 -- -- 80
2017-08-09 07:00:00 7.7 10 Nordeste 14 Nordeste 0 -- -- 88
2017-08-09 06:00:00 8.9 6 Nordeste 10 Nordeste 0 -- -- 84
2017-08-09 05:00:00 10 9 Nordeste 23 Nordeste 0 -- -- 78
2017-08-09 04:00:00 10.4 9 Este 13 Este 0 -- -- 71
2017-08-09 03:00:00 12.4 6 Nordeste 15 Este 0 -- -- 63
2017-08-09 02:00:00 10.8 13 Nordeste 17 Nordeste 0 -- -- 63
2017-08-09 01:00:00 12.6 5 Sudoeste 8 Oeste 0 -- -- 57
2017-08-09 00:00:00 13.5 3 Oeste 14 Nordeste 0 -- -- 53
2017-08-08 23:00:00 15.8 9 Oeste 24 Oeste 0 -- -- 45
2017-08-08 22:00:00 18.4 17 Oeste 27 Oeste 0 -- -- 36
2017-08-08 21:00:00 22.2 16 Oeste 29 Sudoeste 0 -- -- 26
2017-08-08 20:00:00 24.3 15 Sudoeste 31 Sudoeste 0 -- -- 26
2017-08-08 19:00:00 24.5 13 Oeste 31 Sudoeste 0 -- -- 26
2017-08-08 18:00:00 25.7 14 Oeste 27 Oeste 0 -- -- 24
2017-08-08 17:00:00 25.1 18 Oeste 31 Oeste 0 -- -- 26
2017-08-08 16:00:00 24.5 8 Oeste 21 Noroeste 0 -- -- 27
2017-08-08 15:00:00 22.6 7 Sudoeste 21 Noroeste 0 -- -- 33
2017-08-08 14:00:00 22.3 5 Este 19 Oeste 0 -- -- 35
2017-08-08 13:00:00 21.5 6 Nordeste 19 Norte 0 -- -- 39
2017-08-08 12:00:00 18.8 12 Noroeste 19 Nordeste 0 -- -- 50
2017-08-08 11:00:00 17 12 Noroeste 23 Norte 0 -- -- 58
2017-08-08 10:00:00 16.9 8 Norte 14 Noroeste 0 -- -- 60
2017-08-08 09:00:00 14 3 Noroeste 13 Nordeste 0 -- -- 70
2017-08-08 08:00:00 9.1 11 Nordeste 14 Este 0 -- -- 89
2017-08-08 07:00:00 8.9 4 Sur 9 Sudeste 0 -- -- 90
2017-08-08 06:00:00 8.9 5 Sudeste 12 Este 0 -- -- 90
2017-08-08 05:00:00 10.2 7 Sudeste 10 Este 0 -- -- 85
2017-08-08 04:00:00 10.6 0 Calma 6 Sudeste 0 -- -- 85
2017-08-08 03:00:00 10.9 2 Sur 6 Sudeste 0 -- -- 84
2017-08-08 02:00:00 11.3 2 Este 10 Este 0 -- -- 84
2017-08-08 01:00:00 13 6 Oeste 12 Sudoeste 0 -- -- 75
2017-08-08 00:00:00 14.7 8 Oeste 24 Noroeste 0 -- -- 68
2017-08-07 23:00:00 16.7 17 Oeste 28 Noroeste 0 -- -- 59
2017-08-07 22:00:00 18.5 10 Oeste 35 Oeste 0 -- -- 53
2017-08-07 21:00:00 21.2 21 Oeste 39 Oeste 0 -- -- 49
2017-08-07 20:00:00 23.5 26 Oeste 39 Noroeste 0 -- -- 43
2017-08-07 19:00:00 24.5 25 Oeste 42 Sudoeste 0 -- -- 28
2017-08-07 18:00:00 26.1 25 Sudoeste 43 Oeste 0 -- -- 25
2017-08-07 17:00:00 28.1 21 Sudoeste 48 Sudoeste 0 -- -- 24
2017-08-07 16:00:00 27.5 26 Oeste 38 Oeste 0 -- -- 24
2017-08-07 15:00:00 26.6 22 Sudoeste 35 Sudoeste 0 -- -- 31
2017-08-07 14:00:00 25.3 19 Sudoeste 32 Sudoeste 0 -- -- 34
2017-08-07 13:00:00 24.9 16 Sudoeste 29 Sudoeste 0 -- -- 42
2017-08-07 12:00:00 23.2 9 Oeste 21 Sudoeste 0 -- -- 51
2017-08-07 11:00:00 21.1 6 Sur 14 Este 0 -- -- 57
2017-08-07 10:00:00 18.3 10 Este 17 Este 0 -- -- 66
2017-08-07 09:00:00 15.9 16 Nordeste 20 Nordeste 0 -- -- 75
2017-08-07 08:00:00 12.7 12 Nordeste 15 Nordeste 0 -- -- 87
2017-08-07 07:00:00 11.9 9 Norte 14 Nordeste 0 -- -- 90
2017-08-07 06:00:00 11.3 7 Norte 14 Nordeste 0 -- -- 91
2017-08-07 05:00:00 12.1 9 Nordeste 15 Nordeste 0 -- -- 87
2017-08-07 04:00:00 13.8 15 Nordeste 31 Nordeste 0 -- -- 80
2017-08-07 03:00:00 14.8 23 Nordeste 35 Este 0 -- -- 76
2017-08-07 02:00:00 16.3 25 Este 36 Este 0 -- -- 70
2017-08-07 01:00:00 18.3 24 Este 30 Este 0 -- -- 60
2017-08-07 00:00:00 20 19 Este 24 Este 0 -- -- 52
2017-08-06 23:00:00 20.5 14 Este 16 Este 0 -- -- 51
2017-08-06 22:00:00 22.7 8 Este 11 Este 0 -- -- 45
2017-08-06 21:00:00 27 6 Nordeste 16 Nordeste 0 -- -- 36
2017-08-06 20:00:00 28.5 10 Nordeste 20 Este 0 -- -- 33
2017-08-06 19:00:00 28.6 13 Nordeste 23 Nordeste 0 -- -- 34
2017-08-06 18:00:00 28.4 15 Nordeste 35 Este 0 -- -- 35
2017-08-06 17:00:00 27.5 16 Nordeste 35 Nordeste 0 -- -- 38
2017-08-06 16:00:00 26.7 20 Nordeste 39 Este 0 -- -- 39
2017-08-06 15:00:00 25.1 21 Nordeste 38 Nordeste 0 -- -- 43
2017-08-06 14:00:00 24.1 25 Nordeste 42 Nordeste 0 -- -- 45
2017-08-06 13:00:00 22.6 31 Nordeste 48 Este 0 -- -- 49
2017-08-06 12:00:00 20.6 35 Nordeste 51 Nordeste 0 -- -- 54
2017-08-06 11:00:00 19.3 34 Nordeste 54 Nordeste 0 -- -- 59
2017-08-06 10:00:00 17.3 34 Nordeste 50 Este 0 -- -- 66
2017-08-06 09:00:00 15.6 31 Nordeste 44 Nordeste 0 -- -- 74
2017-08-06 08:00:00 13.9 30 Nordeste 44 Este 0 -- -- 80
2017-08-06 07:00:00 13.7 24 Nordeste 39 Nordeste 0 -- -- 79
2017-08-06 06:00:00 14.1 27 Nordeste 39 Nordeste 0 -- -- 77
2017-08-06 05:00:00 14.1 22 Nordeste 38 Nordeste 0 -- -- 77
2017-08-06 04:00:00 15 23 Nordeste 33 Nordeste 0 -- -- 73
2017-08-06 03:00:00 14.5 22 Nordeste 38 Este 0 -- -- 76
2017-08-06 02:00:00 15.5 29 Nordeste 38 Este 0 -- -- 73
2017-08-06 01:00:00 16.7 25 Nordeste 37 Este 0 -- -- 69
2017-08-06 00:00:00 18.6 28 Nordeste 42 Este 0 -- -- 63
2017-08-05 23:00:00 20.4 26 Nordeste 36 Nordeste 0 -- -- 59
2017-08-05 22:00:00 22.7 18 Nordeste 32 Nordeste 0 -- -- 54
2017-08-05 21:00:00 28 18 Noroeste 30 Oeste 0 -- -- 34
2017-08-05 20:00:00 30.2 17 Oeste 34 Oeste 0 -- -- 30
2017-08-05 19:00:00 31.4 21 Oeste 37 Oeste 0 -- -- 24
2017-08-05 18:00:00 31.9 17 Sudoeste 34 Sudoeste 0 -- -- 26
2017-08-05 17:00:00 31.8 13 Oeste 36 Sudoeste 0 -- -- 24
2017-08-05 16:00:00 31.5 12 Sudoeste 32 Sudoeste 0 -- -- 24
2017-08-05 15:00:00 30.7 11 Sudoeste 28 Sur 0 -- -- 26
2017-08-05 14:00:00 29.4 14 Oeste 25 Sudoeste 0 -- -- 32
2017-08-05 13:00:00 29.5 8 Noroeste 17 Noroeste 0 -- -- 40
2017-08-05 12:00:00 27.7 4 Este 16 Nordeste 0 -- -- 48
2017-08-05 11:00:00 25.3 8 Nordeste 20 Nordeste 0 -- -- 57
2017-08-05 10:00:00 22.4 12 Nordeste 19 Nordeste 0 -- -- 70
2017-08-05 09:00:00 20.5 8 Este 11 Este 0 -- -- 77
2017-08-05 08:00:00 17 6 Nordeste 10 Este 0 -- -- 87
2017-08-05 07:00:00 14.5 10 Este 14 Nordeste 0 -- -- 96
2017-08-05 06:00:00 15.7 8 Nordeste 13 Nordeste 0 -- -- 95
2017-08-05 05:00:00 18.1 10 Oeste 13 Sudoeste 0 -- -- 87
2017-08-05 04:00:00 19.3 11 Sudoeste 17 Sudoeste 0 -- -- 80
2017-08-05 03:00:00 20.2 14 Oeste 19 Oeste 0 -- -- 74
2017-08-05 02:00:00 20.4 10 Sudoeste 16 Noroeste 0 -- -- 74
2017-08-05 01:00:00 20.5 12 Noroeste 14 Noroeste 0 -- -- 73
2017-08-05 00:00:00 22.9 2 Sudoeste 19 Oeste 0 -- -- 65
2017-08-04 23:00:00 25 12 Oeste 21 Oeste 0 -- -- 56
2017-08-04 22:00:00 26.9 13 Oeste 31 Oeste 0 -- -- 36
2017-08-04 21:00:00 30.4 24 Sudoeste 36 Oeste 0 -- -- 21
2017-08-04 20:00:00 32 23 Sudoeste 40 Sudoeste 0 -- -- 28
2017-08-04 19:00:00 32.8 17 Oeste 38 Sudoeste 0 -- -- 27
2017-08-04 18:00:00 32.9 21 Sudoeste 36 Sudoeste 0 -- -- 28
2017-08-04 17:00:00 32.6 23 Sudoeste 37 Oeste 0 -- -- 31
2017-08-04 16:00:00 33 13 Oeste 35 Sudoeste 0 -- -- 30
2017-08-04 15:00:00 31.8 19 Sudoeste 31 Sudoeste 0 -- -- 35
2017-08-04 14:00:00 30.5 15 Sudoeste 31 Sudoeste 0 -- -- 38
2017-08-04 13:00:00 29.8 11 Sudoeste 23 Oeste 0 -- -- 35
2017-08-04 12:00:00 28.2 13 Noroeste 22 Noroeste 0 -- -- 44
2017-08-04 11:00:00 25.4 8 Sudoeste 15 Sudoeste 0 -- -- 57
2017-08-04 10:00:00 22.2 9 Sudoeste 15 Oeste 0 -- -- 68
2017-08-04 09:00:00 20.1 8 Noroeste 13 Noroeste 0 -- -- 77
2017-08-04 08:00:00 16.4 8 Oeste 17 Sudoeste 0 -- -- 90
2017-08-04 07:00:00 17.1 13 Oeste 19 Oeste 0 -- -- 87
2017-08-04 06:00:00 17.5 12 Oeste 16 Oeste 0 -- -- 85
2017-08-04 05:00:00 17.7 6 Sudoeste 15 Sudoeste 0 -- -- 83
2017-08-04 04:00:00 18.1 9 Oeste 14 Sudoeste 0 -- -- 81
2017-08-04 03:00:00 19.1 9 Oeste 26 Oeste 0 -- -- 77
2017-08-04 02:00:00 20.3 11 Oeste 22 Sudoeste 0 -- -- 71
2017-08-04 01:00:00 20.3 12 Sudoeste 15 Sudoeste 0 -- -- 70
2017-08-04 00:00:00 21.9 10 Oeste 19 Oeste 0 -- -- 64
2017-08-03 23:00:00 22.7 12 Oeste 24 Oeste 0 -- -- 59
2017-08-03 22:00:00 24 18 Oeste 36 Oeste 0 -- -- 55
2017-08-03 21:00:00 26.4 21 Oeste 33 Noroeste 0 -- -- 47
2017-08-03 20:00:00 28.7 18 Oeste 35 Oeste 0 -- -- 39
2017-08-03 19:00:00 30.1 23 Oeste 43 Oeste 0 -- -- 36
2017-08-03 18:00:00 30.4 24 Oeste 41 Oeste 0 -- -- 35
2017-08-03 17:00:00 29.9 24 Oeste 40 Oeste 0 -- -- 35
2017-08-03 16:00:00 29.2 19 Oeste 39 Sudoeste 0 -- -- 35
2017-08-03 15:00:00 27.8 22 Sudoeste 38 Sudoeste 0 -- -- 44
2017-08-03 14:00:00 26.8 15 Oeste 30 Oeste 0 -- -- 48
2017-08-03 13:00:00 26.1 15 Sudoeste 34 Oeste 0 -- -- 47
2017-08-03 12:00:00 24.1 17 Sudoeste 29 Oeste 0 -- -- 55
2017-08-03 11:00:00 22 15 Sudoeste 27 Sudoeste 0 -- -- 63
2017-08-03 10:00:00 19.1 13 Sudoeste 21 Sudoeste 0 -- -- 72
2017-08-03 09:00:00 16.9 14 Sudoeste 19 Sudoeste 0 -- -- 80
2017-08-03 08:00:00 14.5 10 Sudoeste 16 Oeste 0 -- -- 89
2017-08-03 07:00:00 14 14 Sudoeste 18 Sudoeste 0 -- -- 90
2017-08-03 06:00:00 14.6 14 Sudoeste 17 Sudoeste 0 -- -- 84
2017-08-03 05:00:00 15.2 14 Sudoeste 19 Sudoeste 0 -- -- 75
2017-08-03 04:00:00 15.5 14 Sudoeste 17 Sudoeste 0 -- -- 69
2017-08-03 03:00:00 16.8 12 Sudoeste 16 Sudoeste 0 -- -- 60
2017-08-03 02:00:00 18.9 8 Sudoeste 15 Sudoeste 0 -- -- 53
2017-08-03 01:00:00 20 10 Oeste 19 Oeste 0 -- -- 48
2017-08-03 00:00:00 20.6 8 Oeste 14 Oeste 0 -- -- 39
2017-08-02 23:00:00 21.3 8 Oeste 15 Oeste 0 -- -- 35
2017-08-02 22:00:00 24.3 12 Oeste 27 Oeste 0 -- -- 30
2017-08-02 21:00:00 27.1 17 Oeste 28 Sudoeste 0 -- -- 28
2017-08-02 20:00:00 29.7 16 Oeste 33 Oeste 0 -- -- 16
2017-08-02 19:00:00 30.4 17 Oeste 31 Sudoeste 0 -- -- 16
2017-08-02 18:00:00 30.4 13 Sudoeste 32 Oeste 0 -- -- 19
2017-08-02 17:00:00 30.2 17 Sudoeste 33 Sudoeste 0 -- -- 17
2017-08-02 16:00:00 29.4 17 Sur 32 Sudoeste 0 -- -- 18
2017-08-02 15:00:00 28.7 14 Sur 30 Sur 0 -- -- 21
2017-08-02 14:00:00 27.9 9 Sudoeste 23 Sur 0 -- -- 24
2017-08-02 13:00:00 26 10 Sudoeste 23 Sudoeste 0 -- -- 30
2017-08-02 12:00:00 25.1 7 Sudoeste 17 Sudoeste 0 -- -- 33
2017-08-02 11:00:00 24.7 6 Noroeste 10 Noroeste 0 -- -- 36
2017-08-02 10:00:00 22.3 4 Este 8 Este 0 -- -- 41
2017-08-02 09:00:00 19.1 3 Noroeste 6 Noroeste 0 -- -- 51
2017-08-02 08:00:00 11.3 3 Noroeste 4 Noroeste 0 -- -- 72
2017-08-02 07:00:00 13.4 5 Sudeste 15 Este 0 -- -- 60
2017-08-02 06:00:00 11.5 2 Norte 7 Nordeste 0 -- -- 66
2017-08-02 05:00:00 12.4 4 Oeste 8 Noroeste 0 -- -- 65
2017-08-02 04:00:00 13.1 7 Oeste 9 Oeste 0 -- -- 60
2017-08-02 03:00:00 14.4 4 Sudoeste 9 Sudoeste 0 -- -- 57
2017-08-02 02:00:00 15.8 8 Oeste 9 Sudoeste 0 -- -- 52
2017-08-02 01:00:00 15.7 5 Noroeste 10 Noroeste 0 -- -- 53
2017-08-02 00:00:00 17.1 7 Noroeste 11 Oeste 0 -- -- 46
2017-08-01 23:00:00 18.6 5 Oeste 14 Oeste 0 -- -- 40
2017-08-01 22:00:00 21.1 9 Oeste 22 Oeste 0 -- -- 35
2017-08-01 21:00:00 24.8 13 Oeste 26 Oeste 0 -- -- 29
2017-08-01 20:00:00 25.1 20 Oeste 30 Sudoeste 0 -- -- 26
2017-08-01 19:00:00 26.4 17 Oeste 33 Sudoeste 0 -- -- 22
2017-08-01 18:00:00 26.2 19 Oeste 37 Oeste 0 -- -- 23
2017-08-01 17:00:00 26.6 16 Sudoeste 31 Oeste 0 -- -- 24
2017-08-01 16:00:00 25.6 14 Oeste 33 Oeste 0 -- -- 27
2017-08-01 15:00:00 24.8 12 Oeste 29 Oeste 0 -- -- 34
2017-08-01 14:00:00 24.8 14 Sudoeste 26 Sudoeste 0 -- -- 39
2017-08-01 13:00:00 24.7 8 Sur 21 Sur 0 -- -- 40
2017-08-01 12:00:00 22.2 7 Sur 13 Sudeste 0 -- -- 48
2017-08-01 11:00:00 21 7 Este 20 Nordeste 0 -- -- 57
2017-08-01 10:00:00 18.1 14 Nordeste 21 Nordeste 0 -- -- 69
2017-08-01 09:00:00 14.8 4 Oeste 6 Oeste 0 -- -- 80
2017-08-01 08:00:00 11.3 4 Oeste 6 Noroeste 0 -- -- 92
2017-08-01 07:00:00 9.8 3 Oeste 7 Oeste 0 -- -- 95
2017-08-01 06:00:00 10.9 6 Oeste 11 Sudoeste 0 -- -- 94
2017-08-01 05:00:00 12.3 6 Sudoeste 8 Sudoeste 0 -- -- 87
2017-08-01 04:00:00 11.7 3 Noroeste 15 Sudoeste 0 -- -- 87
2017-08-01 03:00:00 13.6 14 Sudoeste 15 Sudoeste 0 -- -- 77
2017-08-01 02:00:00 14.5 10 Sudoeste 13 Sudoeste 0 -- -- 70
2017-08-01 01:00:00 16 10 Sudoeste 14 Sudoeste 0 -- -- 58
2017-08-01 00:00:00 16.7 4 Sudoeste 10 Sudoeste 0 -- -- 56
2017-07-31 23:00:00 16.8 9 Sudoeste 14 Sudoeste 0 -- -- 56
2017-07-31 22:00:00 17.7 7 Sudoeste 18 Oeste 0 -- -- 52
2017-07-31 21:00:00 19.1 12 Oeste 23 Oeste 0 -- -- 48
2017-07-31 20:00:00 20.1 13 Oeste 25 Sudoeste 0 -- -- 42
2017-07-31 19:00:00 20.6 15 Oeste 26 Oeste 0 -- -- 40
2017-07-31 18:00:00 21 17 Oeste 28 Oeste 0 -- -- 42
2017-07-31 17:00:00 21.8 14 Oeste 27 Oeste 0 -- -- 42
2017-07-31 16:00:00 19.8 12 Oeste 20 Sudoeste 0 -- -- 50
2017-07-31 15:00:00 18 9 Oeste 18 Sudoeste 0 -- -- 61
2017-07-31 14:00:00 18.3 5 Sudoeste 15 Oeste 0 -- -- 65
2017-07-31 13:00:00 17.3 9 Sudoeste 13 Sudoeste 0 -- -- 71
2017-07-31 12:00:00 16.5 7 Sudoeste 13 Oeste 0 -- -- 73
2017-07-31 11:00:00 17.2 4 Sudeste 12 Sudeste 0 -- -- 68
2017-07-31 10:00:00 15.8 6 Este 14 Nordeste 0 -- -- 75
2017-07-31 09:00:00 14.5 9 Nordeste 17 Este 0 -- -- 79
2017-07-31 08:00:00 11.6 11 Este 13 Este 0 -- -- 86
2017-07-31 07:00:00 10.1 8 Oeste 14 Nordeste 0 -- -- 86
2017-07-31 06:00:00 10.6 10 Nordeste 14 Nordeste 0 -- -- 85
2017-07-31 05:00:00 11.2 7 Nordeste 18 Nordeste 0 -- -- 85
2017-07-31 04:00:00 12.5 6 Oeste 8 Oeste 0 -- -- 82
2017-07-31 03:00:00 13.9 8 Sudoeste 11 Sudoeste 0 -- -- 75
2017-07-31 02:00:00 15.6 8 Sudoeste 12 Oeste 0 -- -- 69
2017-07-31 01:00:00 16.6 11 Sudoeste 13 Sudoeste 0 -- -- 64
2017-07-31 00:00:00 17.3 5 Sudoeste 13 Oeste 0 -- -- 62
2017-07-30 23:00:00 18.5 3 Oeste 19 Noroeste 0 -- -- 57
2017-07-30 22:00:00 21 9 Noroeste 21 Oeste 0 -- -- 49
2017-07-30 21:00:00 24.6 13 Oeste 33 Oeste 0 -- -- 30
2017-07-30 20:00:00 26.4 18 Oeste 36 Sudoeste 0 -- -- 28
2017-07-30 19:00:00 27.2 22 Oeste 40 Oeste 0 -- -- 26
2017-07-30 18:00:00 27.6 22 Oeste 37 Sudoeste 0 -- -- 30
2017-07-30 17:00:00 27.7 20 Sudoeste 42 Oeste 0 -- -- 30
2017-07-30 16:00:00 26.2 23 Oeste 41 Oeste 0 -- -- 32
2017-07-30 15:00:00 25.7 21 Oeste 44 Sudoeste 0 -- -- 36
2017-07-30 14:00:00 24 19 Sudoeste 34 Sudoeste 0 -- -- 40
2017-07-30 13:00:00 23 15 Sudoeste 30 Sudoeste 0 -- -- 44
2017-07-30 12:00:00 21.7 13 Sudoeste 29 Sudoeste 0 -- -- 52
2017-07-30 11:00:00 20 14 Sudoeste 23 Oeste 0 -- -- 59
2017-07-30 10:00:00 17.6 14 Sudoeste 22 Sudoeste 0 -- -- 74
2017-07-30 09:00:00 14.9 12 Sudoeste 16 Sudoeste 0 -- -- 86
2017-07-30 08:00:00 12.8 10 Sudoeste 14 Sudoeste 0 -- -- 94
2017-07-30 07:00:00 12.7 10 Sudoeste 17 Sudoeste 0 -- -- 92
2017-07-30 06:00:00 13.8 14 Sudoeste 20 Oeste 0 -- -- 83
2017-07-30 05:00:00 15.4 15 Oeste 22 Oeste 0 -- -- 73
2017-07-30 04:00:00 15.5 15 Oeste 20 Oeste 0 -- -- 78
2017-07-30 03:00:00 16.2 10 Oeste 24 Oeste 0 -- -- 74
2017-07-30 02:00:00 16.9 10 Sudoeste 23 Oeste 0 -- -- 59
2017-07-30 01:00:00 18.7 14 Oeste 20 Oeste 0 -- -- 52
2017-07-30 00:00:00 19.5 9 Sudoeste 15 Sudoeste 0 -- -- 55
2017-07-29 23:00:00 21.2 8 Sudoeste 17 Sudoeste 0 -- -- 45
2017-07-29 22:00:00 23.6 10 Sudoeste 30 Oeste 0 -- -- 39
2017-07-29 21:00:00 26.8 21 Oeste 37 Oeste 0 -- -- 35
2017-07-29 20:00:00 29.3 20 Oeste 41 Oeste 0 -- -- 27
2017-07-29 19:00:00 30.3 26 Oeste 41 Sudoeste 0 -- -- 25
2017-07-29 18:00:00 30.6 25 Oeste 44 Oeste 0 -- -- 28
2017-07-29 17:00:00 29.8 27 Sudoeste 44 Sudoeste 0 -- -- 29
2017-07-29 16:00:00 28.9 28 Sudoeste 40 Sudoeste 0 -- -- 31
2017-07-29 15:00:00 28.1 22 Sudoeste 35 Sudoeste 0 -- -- 40
2017-07-29 14:00:00 27.2 17 Sudoeste 34 Sudoeste 0 -- -- 42
2017-07-29 13:00:00 25.8 22 Sudoeste 37 Sudoeste 0 -- -- 43
2017-07-29 12:00:00 24.3 20 Sudoeste 31 Sudoeste 0 -- -- 46
2017-07-29 11:00:00 22.6 13 Oeste 27 Sudoeste 0 -- -- 60
2017-07-29 10:00:00 19.8 15 Oeste 23 Sudoeste 0 -- -- 74
2017-07-29 09:00:00 17.3 13 Sudoeste 21 Sudoeste 0 -- -- 87
2017-07-29 08:00:00 14.8 14 Sudoeste 20 Sudoeste 0 -- -- 97
2017-07-29 07:00:00 14 10 Sudoeste 17 Sudoeste 0 -- -- 98
2017-07-29 06:00:00 14.3 7 Sudoeste 14 Sudoeste 0 -- -- 97
2017-07-29 05:00:00 15.6 12 Sudoeste 15 Sur 0 -- -- 92
2017-07-29 04:00:00 16.3 10 Sudoeste 15 Sudoeste 0 -- -- 85
2017-07-29 03:00:00 17.1 11 Sudoeste 14 Sudoeste 0 -- -- 79
2017-07-29 02:00:00 18.2 10 Sudoeste 19 Oeste 0 -- -- 66
2017-07-29 01:00:00 19.1 9 Sudoeste 15 Oeste 0 -- -- 61
2017-07-29 00:00:00 20.8 10 Oeste 20 Oeste 0 -- -- 53
2017-07-28 23:00:00 23 13 Oeste 24 Oeste 0 -- -- 47
2017-07-28 22:00:00 24.9 17 Oeste 27 Oeste 0 -- -- 40
2017-07-28 21:00:00 28.4 17 Oeste 29 Oeste 0 -- -- 28
2017-07-28 20:00:00 30.4 17 Oeste 34 Sudoeste 0 -- -- 26
2017-07-28 19:00:00 31.6 16 Sudoeste 33 Sudoeste 0 -- -- 22
2017-07-28 18:00:00 32.2 14 Oeste 34 Sudoeste 0 -- -- 14
2017-07-28 17:00:00 31.1 18 Sudoeste 32 Sudoeste 0 -- -- 17
2017-07-28 16:00:00 30.9 15 Sur 44 Oeste 0 -- -- 16
2017-07-28 15:00:00 29.9 13 Sudoeste 24 Oeste 0 -- -- 17
2017-07-28 14:00:00 28.9 8 Sur 19 Sudoeste 0 -- -- 22
2017-07-28 13:00:00 27 10 Sur 19 Sudoeste 0 -- -- 30
2017-07-28 12:00:00 25 9 Oeste 16 Sudoeste 0 -- -- 41
2017-07-28 11:00:00 22 10 Oeste 18 Sudoeste 0 -- -- 48
2017-07-28 10:00:00 20.2 6 Sudoeste 12 Sudoeste 0 -- -- 58
2017-07-28 09:00:00 17.8 8 Sudoeste 12 Sudoeste 0 -- -- 81
2017-07-28 08:00:00 14.7 3 Nordeste 6 Sudoeste 0 -- -- 93
2017-07-28 07:00:00 13.8 6 Sudoeste 10 Sudoeste 0 -- -- 96
2017-07-28 06:00:00 14.7 10 Sudoeste 14 Sudoeste 0 -- -- 92
2017-07-28 05:00:00 15.4 14 Sudoeste 19 Oeste 0 -- -- 88
2017-07-28 04:00:00 16.6 17 Oeste 21 Oeste 0 -- -- 79
2017-07-28 03:00:00 16.9 11 Sudoeste 17 Oeste 0 -- -- 78
2017-07-28 02:00:00 18 10 Sudoeste 16 Sudoeste 0 -- -- 75
2017-07-28 01:00:00 20.2 10 Oeste 15 Oeste 0 -- -- 67
2017-07-28 00:00:00 21.6 10 Oeste 21 Noroeste 0 -- -- 62
2017-07-27 23:00:00 23.4 13 Oeste 27 Oeste 0 -- -- 54
2017-07-27 22:00:00 25.3 11 Oeste 33 Oeste 0 -- -- 45
2017-07-27 21:00:00 28.6 20 Oeste 34 Noroeste 0 -- -- 37
2017-07-27 20:00:00 31 17 Oeste 38 Sudoeste 0 -- -- 27
2017-07-27 19:00:00 31.5 21 Sudoeste 40 Oeste 0 -- -- 23
2017-07-27 18:00:00 32.7 18 Oeste 40 Sudoeste 0 -- -- 18
2017-07-27 17:00:00 32.1 22 Sudoeste 40 Sudoeste 0 -- -- 20
2017-07-27 16:00:00 32.1 22 Sudoeste 35 Noroeste 0 -- -- 19
2017-07-27 15:00:00 30.8 18 Sudoeste 32 Sudoeste 0 -- -- 25
2017-07-27 14:00:00 30 15 Sudoeste 25 Oeste 0 -- -- 21
2017-07-27 13:00:00 28.2 11 Sudoeste 22 Sudoeste 0 -- -- 24
2017-07-27 12:00:00 26 12 Sudoeste 20 Sudoeste 0 -- -- 30
2017-07-27 11:00:00 24.1 9 Oeste 14 Sudoeste 0 -- -- 34
2017-07-27 10:00:00 23.7 3 Sudoeste 8 Sur 0 -- -- 41
2017-07-27 09:00:00 19.9 4 Sudoeste 8 Sudoeste 0 -- -- 53
2017-07-27 08:00:00 15.8 5 Nordeste 11 Nordeste 0 -- -- 60
2017-07-27 07:00:00 13.2 3 Nordeste 11 Sudoeste 0 -- -- 67
2017-07-27 06:00:00 17 8 Sudoeste 12 Sudoeste 0 -- -- 55
2017-07-27 05:00:00 18.5 10 Sudoeste 15 Sudoeste 0 -- -- 50
2017-07-27 04:00:00 18 10 Sudoeste 11 Sudoeste 0 -- -- 51
2017-07-27 03:00:00 19 8 Sudoeste 12 Oeste 0 -- -- 49
2017-07-27 02:00:00 19.6 10 Oeste 13 Oeste 0 -- -- 48
2017-07-27 01:00:00 19.1 6 Sudoeste 9 Oeste 0 -- -- 51
2017-07-27 00:00:00 21.5 5 Noroeste 13 Noroeste 0 -- -- 42
2017-07-26 23:00:00 23.5 10 Noroeste 19 Oeste 0 -- -- 38
2017-07-26 22:00:00 25.5 12 Oeste 27 Oeste 0 -- -- 32
2017-07-26 21:00:00 28.7 19 Oeste 29 Oeste 0 -- -- 26
2017-07-26 20:00:00 31 14 Oeste 30 Oeste 0 -- -- 25
2017-07-26 19:00:00 31.5 12 Oeste 27 Noroeste 0 -- -- 23
2017-07-26 18:00:00 31.7 10 Sudoeste 30 Sudoeste 0 -- -- 21
2017-07-26 17:00:00 31 10 Oeste 29 Oeste 0 -- -- 24
2017-07-26 16:00:00 31.2 11 Oeste 27 Sudoeste 0 -- -- 23
2017-07-26 15:00:00 29 13 Sudoeste 25 Sudoeste 0 -- -- 28
2017-07-26 14:00:00 28.6 6 Oeste 20 Sudoeste 0 -- -- 30
2017-07-26 13:00:00 26.2 8 Sur 18 Oeste 0 -- -- 36
2017-07-26 12:00:00 25.4 4 Sudeste 14 Sudoeste 0 -- -- 38
2017-07-26 11:00:00 24.2 5 Nordeste 16 Este 0 -- -- 40
2017-07-26 10:00:00 19.7 8 Este 14 Nordeste 0 -- -- 49
2017-07-26 09:00:00 17.9 8 Nordeste 13 Nordeste 0 -- -- 53
2017-07-26 08:00:00 14.1 9 Nordeste 12 Nordeste 0 -- -- 65
2017-07-26 07:00:00 11.7 10 Nordeste 14 Nordeste 0 -- -- 72
2017-07-26 06:00:00 11.8 9 Nordeste 14 Nordeste 0 -- -- 71
2017-07-26 05:00:00 12.9 12 Nordeste 17 Nordeste 0 -- -- 66
2017-07-26 04:00:00 14.2 10 Nordeste 24 Este 0 -- -- 62
2017-07-26 03:00:00 15.8 21 Nordeste 24 Este 0 -- -- 56
2017-07-26 02:00:00 16.4 14 Este 24 Este 0 -- -- 54
2017-07-26 01:00:00 17.9 17 Nordeste 26 Nordeste 0 -- -- 50
2017-07-26 00:00:00 18.7 15 Nordeste 20 Nordeste 0 -- -- 50
2017-07-25 23:00:00 20.2 11 Nordeste 17 Nordeste 0 -- -- 44
2017-07-25 22:00:00 22.3 11 Este 15 Este 0 -- -- 39
2017-07-25 21:00:00 24.7 11 Sudeste 23 Este 0 -- -- 34
2017-07-25 20:00:00 27.8 11 Este 19 Este 0 -- -- 27
2017-07-25 19:00:00 29.2 6 Nordeste 24 Nordeste 0 -- -- 25
2017-07-25 18:00:00 29.2 13 Nordeste 26 Este 0 -- -- 25
2017-07-25 17:00:00 28.8 8 Nordeste 24 Nordeste 0 -- -- 25
2017-07-25 16:00:00 27.1 13 Nordeste 30 Nordeste 0 -- -- 27
2017-07-25 15:00:00 26.5 12 Norte 30 Nordeste 0 -- -- 30
2017-07-25 14:00:00 24.7 7 Este 26 Norte 0 -- -- 35
2017-07-25 13:00:00 22.8 14 Nordeste 28 Este 0 -- -- 39
2017-07-25 12:00:00 20.6 13 Este 28 Este 0 -- -- 47
2017-07-25 11:00:00 18.5 18 Este 29 Nordeste 0 -- -- 55
2017-07-25 10:00:00 16.3 21 Este 31 Este 0 -- -- 65
2017-07-25 09:00:00 14.4 19 Nordeste 25 Nordeste 0 -- -- 77
2017-07-25 08:00:00 12 6 Nordeste 13 Nordeste 0 -- -- 86
2017-07-25 07:00:00 10.5 9 Nordeste 17 Nordeste 0 -- -- 92
2017-07-25 06:00:00 11.1 15 Nordeste 22 Nordeste 0 -- -- 89
2017-07-25 05:00:00 12.2 17 Nordeste 31 Este 0 -- -- 85
2017-07-25 04:00:00 13.3 24 Este 33 Este 0 -- -- 81
2017-07-25 03:00:00 14.5 24 Nordeste 38 Este 0 -- -- 68
2017-07-25 02:00:00 15.9 25 Nordeste 36 Nordeste 0 -- -- 59
2017-07-25 01:00:00 16.8 22 Nordeste 35 Nordeste 0 -- -- 57
2017-07-25 00:00:00 18.4 25 Nordeste 39 Nordeste 0 -- -- 53
2017-07-24 23:00:00 19.8 19 Nordeste 28 Nordeste 0 -- -- 52
2017-07-24 22:00:00 22.3 19 Nordeste 31 Nordeste 0 -- -- 46
2017-07-24 21:00:00 27 18 Norte 54 Nordeste 0 -- -- 35
2017-07-24 20:00:00 28.9 17 Sudoeste 30 Oeste 0 -- -- 30
2017-07-24 19:00:00 30.3 13 Noroeste 27 Oeste 0 -- -- 26
2017-07-24 18:00:00 29.6 14 Sudoeste 40 Sur 0 -- -- 27
2017-07-24 17:00:00 29.6 14 Oeste 24 Sudoeste 0 -- -- 27
2017-07-24 16:00:00 29.7 6 Este 19 Sur 0 -- -- 18
2017-07-24 15:00:00 29.4 8 Norte 26 Oeste 0 -- -- 24
2017-07-24 14:00:00 26.4 9 Sur 22 Nordeste 0 -- -- 30
2017-07-24 13:00:00 26.7 7 Norte 26 Norte 0 -- -- 32
2017-07-24 12:00:00 25.7 9 Norte 18 Norte 0 -- -- 38
2017-07-24 11:00:00 23.9 7 Norte 13 Norte 0 -- -- 44
2017-07-24 10:00:00 23.1 3 Norte 8 Noroeste 0 -- -- 49
2017-07-24 09:00:00 18.5 3 Oeste 5 Sudoeste 0 -- -- 64
2017-07-24 08:00:00 14.5 3 Sudeste 5 Norte 0 -- -- 82
2017-07-24 07:00:00 11.4 4 Oeste 8 Noroeste 0 -- -- 98
2017-07-24 06:00:00 13.4 7 Sudoeste 8 Sudoeste 0 -- -- 89
2017-07-24 05:00:00 13.8 5 Sudoeste 7 Oeste 0 -- -- 88
2017-07-24 04:00:00 15.1 6 Oeste 9 Oeste 0 -- -- 82
2017-07-24 03:00:00 15.6 8 Oeste 12 Oeste 0 -- -- 79
2017-07-24 02:00:00 16.4 9 Sudoeste 17 Oeste 0 -- -- 76
2017-07-24 01:00:00 17.9 12 Oeste 26 Noroeste 0 -- -- 64
2017-07-24 00:00:00 19 17 Noroeste 24 Noroeste 0 -- -- 62
2017-07-23 23:00:00 20.4 15 Noroeste 28 Oeste 0 -- -- 59
2017-07-23 22:00:00 22.2 18 Noroeste 38 Oeste 0 -- -- 52
2017-07-23 21:00:00 25.1 24 Oeste 36 Oeste 0 -- -- 43
2017-07-23 20:00:00 27.1 20 Oeste 41 Oeste 0 -- -- 37
2017-07-23 19:00:00 27.8 26 Oeste 39 Oeste 0 -- -- 35
2017-07-23 18:00:00 28.3 20 Oeste 36 Oeste 0 -- -- 31
2017-07-23 17:00:00 29.5 14 Sudoeste 33 Sudoeste 0 -- -- 25
2017-07-23 16:00:00 29 13 Oeste 26 Oeste 0 -- -- 28
2017-07-23 15:00:00 27.8 11 Sur 26 Oeste 0 -- -- 30
2017-07-23 14:00:00 27 9 Oeste 20 Sudoeste 0 -- -- 34
2017-07-23 13:00:00 25.6 5 Sudoeste 13 Noroeste 0 -- -- 36
2017-07-23 12:00:00 24 6 Oeste 18 Norte 0 -- -- 41
2017-07-23 11:00:00 21.8 10 Norte 20 Norte 0 -- -- 54
2017-07-23 10:00:00 18.2 13 Nordeste 21 Nordeste 0 -- -- 66
2017-07-23 09:00:00 15.3 18 Nordeste 23 Nordeste 0 -- -- 77
2017-07-23 08:00:00 12.7 17 Nordeste 21 Nordeste 0 -- -- 86
2017-07-23 07:00:00 9.9 6 Este 18 Nordeste 0 -- -- 87
2017-07-23 06:00:00 11.6 16 Nordeste 21 Nordeste 0 -- -- 79
2017-07-23 05:00:00 12.3 16 Nordeste 20 Nordeste 0 -- -- 75
2017-07-23 04:00:00 13.4 15 Este 21 Este 0 -- -- 75
2017-07-23 03:00:00 13.4 4 Sudeste 9 Sudeste 0 -- -- 76
2017-07-23 02:00:00 15.6 3 Sudoeste 7 Sudoeste 0 -- -- 68
2017-07-23 01:00:00 15.8 6 Oeste 8 Sudoeste 0 -- -- 67
2017-07-23 00:00:00 16.2 4 Sudoeste 13 Oeste 0 -- -- 63